sensor_id;sensor_type;location;lat;lon;timestamp;temperature;humidity
19200;DHT22;9732;52.498;5.408;2023-11-21T00:00:19;9.70;99.90
19200;DHT22;9732;52.498;5.408;2023-11-21T00:02:47;9.70;99.90
19200;DHT22;9732;52.498;5.408;2023-11-21T00:05:17;9.60;99.90
19200;DHT22;9732;52.498;5.408;2023-11-21T00:07:44;9.60;99.90
19200;DHT22;9732;52.498;5.408;2023-11-21T00:10:13;9.60;99.90
19200;DHT22;9732;52.498;5.408;2023-11-21T00:12:41;9.60;99.90
19200;DHT22;9732;52.498;5.408;2023-11-21T00:15:09;9.60;99.90
19200;DHT22;9732;52.498;5.408;2023-11-21T00:17:38;9.60;99.90
19200;DHT22;9732;52.498;5.408;2023-11-21T00:20:07;9.70;99.90
19200;DHT22;9732;52.498;5.408;2023-11-21T00:22:38;9.70;99.90
19200;DHT22;9732;52.498;5.408;2023-11-21T00:25:07;9.70;99.90
19200;DHT22;9732;52.498;5.408;2023-11-21T00:27:36;9.70;99.90
19200;DHT22;9732;52.498;5.408;2023-11-21T00:30:03;9.80;99.90
19200;DHT22;9732;52.498;5.408;2023-11-21T00:32:35;9.80;99.90
19200;DHT22;9732;52.498;5.408;2023-11-21T00:35:03;9.80;99.90
19200;DHT22;9732;52.498;5.408;2023-11-21T00:37:30;9.70;99.90
19200;DHT22;9732;52.498;5.408;2023-11-21T00:39:57;9.70;99.90
19200;DHT22;9732;52.498;5.408;2023-11-21T00:42:24;9.80;99.90
19200;DHT22;9732;52.498;5.408;2023-11-21T00:44:55;9.80;99.90
19200;DHT22;9732;52.498;5.408;2023-11-21T00:47:23;9.80;99.90
19200;DHT22;9732;52.498;5.408;2023-11-21T00:49:50;9.80;99.90
19200;DHT22;9732;52.498;5.408;2023-11-21T00:52:18;9.80;99.90
19200;DHT22;9732;52.498;5.408;2023-11-21T00:54:47;9.80;99.90
19200;DHT22;9732;52.498;5.408;2023-11-21T00:57:16;9.90;99.90
19200;DHT22;9732;52.498;5.408;2023-11-21T00:59:43;9.90;99.90
19200;DHT22;9732;52.498;5.408;2023-11-21T01:02:13;9.90;99.90
19200;DHT22;9732;52.498;5.408;2023-11-21T01:04:41;9.90;99.90
19200;DHT22;9732;52.498;5.408;2023-11-21T01:07:09;9.90;99.90
19200;DHT22;9732;52.498;5.408;2023-11-21T01:09:36;9.90;99.90
19200;DHT22;9732;52.498;5.408;2023-11-21T01:12:04;9.90;99.90
19200;DHT22;9732;52.498;5.408;2023-11-21T01:14:31;9.90;99.90
19200;DHT22;9732;52.498;5.408;2023-11-21T01:16:58;10.00;99.90
19200;DHT22;9732;52.498;5.408;2023-11-21T01:19:26;10.00;99.90
19200;DHT22;9732;52.498;5.408;2023-11-21T01:21:55;10.00;99.90
19200;DHT22;9732;52.498;5.408;2023-11-21T01:24:24;10.00;99.90
19200;DHT22;9732;52.498;5.408;2023-11-21T01:26:51;10.10;99.90
19200;DHT22;9732;52.498;5.408;2023-11-21T01:29:17;10.00;99.90
19200;DHT22;9732;52.498;5.408;2023-11-21T01:31:45;10.10;99.90
19200;DHT22;9732;52.498;5.408;2023-11-21T01:34:12;10.00;99.90
19200;DHT22;9732;52.498;5.408;2023-11-21T01:36:41;10.20;99.90
19200;DHT22;9732;52.498;5.408;2023-11-21T01:39:08;10.20;99.90
19200;DHT22;9732;52.498;5.408;2023-11-21T01:41:41;10.20;99.90
19200;DHT22;9732;52.498;5.408;2023-11-21T01:44:09;10.20;99.90
19200;DHT22;9732;52.498;5.408;2023-11-21T01:46:36;10.20;99.90
19200;DHT22;9732;52.498;5.408;2023-11-21T01:49:06;10.20;99.90
19200;DHT22;9732;52.498;5.408;2023-11-21T01:51:36;10.20;99.90
19200;DHT22;9732;52.498;5.408;2023-11-21T01:54:11;10.10;99.90
19200;DHT22;9732;52.498;5.408;2023-11-21T01:56:38;10.20;99.90
19200;DHT22;9732;52.498;5.408;2023-11-21T01:59:05;10.20;99.90
19200;DHT22;9732;52.498;5.408;2023-11-21T02:01:35;10.40;99.90
19200;DHT22;9732;52.498;5.408;2023-11-21T02:04:03;10.20;99.90
19200;DHT22;9732;52.498;5.408;2023-11-21T02:06:30;10.20;99.90
19200;DHT22;9732;52.498;5.408;2023-11-21T02:08:58;10.20;99.90
19200;DHT22;9732;52.498;5.408;2023-11-21T02:11:27;10.20;99.90
19200;DHT22;9732;52.498;5.408;2023-11-21T02:13:56;10.20;99.90
19200;DHT22;9732;52.498;5.408;2023-11-21T02:16:25;10.20;99.90
19200;DHT22;9732;52.498;5.408;2023-11-21T02:18:53;10.20;99.90
19200;DHT22;9732;52.498;5.408;2023-11-21T02:21:25;10.20;99.90
19200;DHT22;9732;52.498;5.408;2023-11-21T02:23:54;10.20;99.90
19200;DHT22;9732;52.498;5.408;2023-11-21T02:26:28;10.20;99.90
19200;DHT22;9732;52.498;5.408;2023-11-21T02:28:56;10.20;99.90
19200;DHT22;9732;52.498;5.408;2023-11-21T02:31:24;10.20;99.90
19200;DHT22;9732;52.498;5.408;2023-11-21T02:33:52;10.20;99.90
19200;DHT22;9732;52.498;5.408;2023-11-21T02:36:22;10.20;99.90
19200;DHT22;9732;52.498;5.408;2023-11-21T02:38:53;10.20;99.90
19200;DHT22;9732;52.498;5.408;2023-11-21T02:41:20;10.20;99.90
19200;DHT22;9732;52.498;5.408;2023-11-21T02:43:48;10.30;99.90
19200;DHT22;9732;52.498;5.408;2023-11-21T02:46:16;10.30;99.90
19200;DHT22;9732;52.498;5.408;2023-11-21T02:48:44;10.30;99.90
19200;DHT22;9732;52.498;5.408;2023-11-21T02:51:13;10.40;99.90
19200;DHT22;9732;52.498;5.408;2023-11-21T02:53:41;10.30;99.90
19200;DHT22;9732;52.498;5.408;2023-11-21T02:56:09;10.30;99.90
19200;DHT22;9732;52.498;5.408;2023-11-21T02:58:36;10.30;99.90
19200;DHT22;9732;52.498;5.408;2023-11-21T03:01:04;10.30;99.90
19200;DHT22;9732;52.498;5.408;2023-11-21T03:03:31;10.30;99.90
19200;DHT22;9732;52.498;5.408;2023-11-21T03:05:58;10.30;99.90
19200;DHT22;9732;52.498;5.408;2023-11-21T03:08:27;10.30;99.90
19200;DHT22;9732;52.498;5.408;2023-11-21T03:10:56;10.30;99.90
19200;DHT22;9732;52.498;5.408;2023-11-21T03:13:25;10.30;99.90
19200;DHT22;9732;52.498;5.408;2023-11-21T03:15:52;10.30;99.90
19200;DHT22;9732;52.498;5.408;2023-11-21T03:18:20;10.30;99.90
19200;DHT22;9732;52.498;5.408;2023-11-21T03:20:48;10.30;99.90
19200;DHT22;9732;52.498;5.408;2023-11-21T03:23:15;10.30;99.90
19200;DHT22;9732;52.498;5.408;2023-11-21T03:25:45;10.30;99.90
19200;DHT22;9732;52.498;5.408;2023-11-21T03:28:12;10.40;99.90
19200;DHT22;9732;52.498;5.408;2023-11-21T03:30:40;10.40;99.90
19200;DHT22;9732;52.498;5.408;2023-11-21T03:33:07;10.40;99.90
19200;DHT22;9732;52.498;5.408;2023-11-21T03:35:34;10.40;99.90
19200;DHT22;9732;52.498;5.408;2023-11-21T03:38:02;10.40;99.90
19200;DHT22;9732;52.498;5.408;2023-11-21T03:40:28;10.40;99.90
19200;DHT22;9732;52.498;5.408;2023-11-21T03:42:56;10.40;99.90
19200;DHT22;9732;52.498;5.408;2023-11-21T03:45:25;10.40;99.90
19200;DHT22;9732;52.498;5.408;2023-11-21T03:47:55;10.40;99.90
19200;DHT22;9732;52.498;5.408;2023-11-21T03:50:22;10.40;99.90
19200;DHT22;9732;52.498;5.408;2023-11-21T03:52:49;10.30;99.90
19200;DHT22;9732;52.498;5.408;2023-11-21T03:55:15;10.40;99.90
19200;DHT22;9732;52.498;5.408;2023-11-21T03:57:42;10.40;99.90
19200;DHT22;9732;52.498;5.408;2023-11-21T04:00:11;10.40;99.90
19200;DHT22;9732;52.498;5.408;2023-11-21T04:02:38;10.40;99.90
19200;DHT22;9732;52.498;5.408;2023-11-21T04:05:08;10.40;99.90
19200;DHT22;9732;52.498;5.408;2023-11-21T04:07:36;10.40;99.90
19200;DHT22;9732;52.498;5.408;2023-11-21T04:10:06;10.20;99.90
19200;DHT22;9732;52.498;5.408;2023-11-21T04:12:34;10.40;99.90
19200;DHT22;9732;52.498;5.408;2023-11-21T04:15:01;10.40;99.90
19200;DHT22;9732;52.498;5.408;2023-11-21T04:17:28;10.40;99.90
19200;DHT22;9732;52.498;5.408;2023-11-21T04:19:58;10.40;99.90
19200;DHT22;9732;52.498;5.408;2023-11-21T04:22:28;10.40;99.90
19200;DHT22;9732;52.498;5.408;2023-11-21T04:24:55;10.40;99.90
19200;DHT22;9732;52.498;5.408;2023-11-21T04:27:22;10.40;99.90
19200;DHT22;9732;52.498;5.408;2023-11-21T04:29:49;10.40;99.90
19200;DHT22;9732;52.498;5.408;2023-11-21T04:32:16;10.40;99.90
19200;DHT22;9732;52.498;5.408;2023-11-21T04:34:43;10.40;99.90
19200;DHT22;9732;52.498;5.408;2023-11-21T04:37:10;10.50;99.90
19200;DHT22;9732;52.498;5.408;2023-11-21T04:39:39;10.40;99.90
19200;DHT22;9732;52.498;5.408;2023-11-21T04:42:09;10.40;99.90
19200;DHT22;9732;52.498;5.408;2023-11-21T04:44:36;10.50;99.90
19200;DHT22;9732;52.498;5.408;2023-11-21T04:47:04;10.50;99.90
19200;DHT22;9732;52.498;5.408;2023-11-21T04:49:30;10.50;99.90
19200;DHT22;9732;52.498;5.408;2023-11-21T04:51:57;10.50;99.90
19200;DHT22;9732;52.498;5.408;2023-11-21T04:54:24;10.50;99.90
19200;DHT22;9732;52.498;5.408;2023-11-21T04:56:52;10.60;99.90
19200;DHT22;9732;52.498;5.408;2023-11-21T04:59:19;10.60;99.90
19200;DHT22;9732;52.498;5.408;2023-11-21T05:01:51;10.60;99.90
19200;DHT22;9732;52.498;5.408;2023-11-21T05:04:19;10.60;99.90
19200;DHT22;9732;52.498;5.408;2023-11-21T05:06:47;10.60;99.90
19200;DHT22;9732;52.498;5.408;2023-11-21T05:09:15;10.70;99.90
19200;DHT22;9732;52.498;5.408;2023-11-21T05:11:42;10.70;99.90
19200;DHT22;9732;52.498;5.408;2023-11-21T05:14:11;10.60;99.90
19200;DHT22;9732;52.498;5.408;2023-11-21T05:16:41;10.70;99.90
19200;DHT22;9732;52.498;5.408;2023-11-21T05:19:08;10.70;99.90
19200;DHT22;9732;52.498;5.408;2023-11-21T05:21:35;10.70;99.90
19200;DHT22;9732;52.498;5.408;2023-11-21T05:24:02;10.60;99.90
19200;DHT22;9732;52.498;5.408;2023-11-21T05:26:31;10.60;99.90
19200;DHT22;9732;52.498;5.408;2023-11-21T05:28:58;10.60;99.90
19200;DHT22;9732;52.498;5.408;2023-11-21T05:31:26;10.70;99.90
19200;DHT22;9732;52.498;5.408;2023-11-21T05:33:55;10.60;99.90
19200;DHT22;9732;52.498;5.408;2023-11-21T05:36:23;10.60;99.90
19200;DHT22;9732;52.498;5.408;2023-11-21T05:38:50;10.60;99.90
19200;DHT22;9732;52.498;5.408;2023-11-21T05:41:17;10.70;99.90
19200;DHT22;9732;52.498;5.408;2023-11-21T05:43:44;10.70;99.90
19200;DHT22;9732;52.498;5.408;2023-11-21T05:46:11;10.60;99.90
19200;DHT22;9732;52.498;5.408;2023-11-21T05:48:40;10.60;99.90
19200;DHT22;9732;52.498;5.408;2023-11-21T05:51:08;10.90;99.90
19200;DHT22;9732;52.498;5.408;2023-11-21T05:53:35;10.70;99.90
19200;DHT22;9732;52.498;5.408;2023-11-21T05:56:03;10.60;99.90
19200;DHT22;9732;52.498;5.408;2023-11-21T05:58:33;10.60;99.90
19200;DHT22;9732;52.498;5.408;2023-11-21T06:01:00;10.60;99.90
19200;DHT22;9732;52.498;5.408;2023-11-21T06:03:28;10.60;99.90
19200;DHT22;9732;52.498;5.408;2023-11-21T06:05:57;10.60;99.90
19200;DHT22;9732;52.498;5.408;2023-11-21T06:08:24;10.60;99.90
19200;DHT22;9732;52.498;5.408;2023-11-21T06:10:51;10.60;99.90
19200;DHT22;9732;52.498;5.408;2023-11-21T06:13:20;10.70;99.90
19200;DHT22;9732;52.498;5.408;2023-11-21T06:15:49;10.60;99.90
19200;DHT22;9732;52.498;5.408;2023-11-21T06:18:17;10.60;99.90
19200;DHT22;9732;52.498;5.408;2023-11-21T06:20:45;10.70;99.90
19200;DHT22;9732;52.498;5.408;2023-11-21T06:23:13;10.60;99.90
19200;DHT22;9732;52.498;5.408;2023-11-21T06:25:40;10.70;99.90
19200;DHT22;9732;52.498;5.408;2023-11-21T06:28:07;10.60;99.90
19200;DHT22;9732;52.498;5.408;2023-11-21T06:30:34;10.60;99.90
19200;DHT22;9732;52.498;5.408;2023-11-21T06:33:02;10.70;99.90
19200;DHT22;9732;52.498;5.408;2023-11-21T06:35:30;10.60;99.90
19200;DHT22;9732;52.498;5.408;2023-11-21T06:37:59;10.70;99.90
19200;DHT22;9732;52.498;5.408;2023-11-21T06:40:27;10.60;99.90
19200;DHT22;9732;52.498;5.408;2023-11-21T06:42:54;10.70;99.90
19200;DHT22;9732;52.498;5.408;2023-11-21T06:45:24;10.70;99.90
19200;DHT22;9732;52.498;5.408;2023-11-21T06:47:52;10.70;99.90
19200;DHT22;9732;52.498;5.408;2023-11-21T06:50:19;10.70;99.90
19200;DHT22;9732;52.498;5.408;2023-11-21T06:52:49;10.70;99.90
19200;DHT22;9732;52.498;5.408;2023-11-21T06:55:16;10.70;99.90
19200;DHT22;9732;52.498;5.408;2023-11-21T06:57:44;10.70;99.90
19200;DHT22;9732;52.498;5.408;2023-11-21T07:00:15;10.80;99.90
19200;DHT22;9732;52.498;5.408;2023-11-21T07:02:46;10.80;99.90
19200;DHT22;9732;52.498;5.408;2023-11-21T07:05:13;10.80;99.90
19200;DHT22;9732;52.498;5.408;2023-11-21T07:07:41;10.80;99.90
19200;DHT22;9732;52.498;5.408;2023-11-21T07:10:11;10.80;99.90
19200;DHT22;9732;52.498;5.408;2023-11-21T07:12:39;10.80;99.90
19200;DHT22;9732;52.498;5.408;2023-11-21T07:15:10;10.80;99.90
19200;DHT22;9732;52.498;5.408;2023-11-21T07:17:38;10.80;99.90
19200;DHT22;9732;52.498;5.408;2023-11-21T07:20:10;10.80;99.90
19200;DHT22;9732;52.498;5.408;2023-11-21T07:22:38;10.80;99.90
19200;DHT22;9732;52.498;5.408;2023-11-21T07:25:09;10.80;99.90
19200;DHT22;9732;52.498;5.408;2023-11-21T07:27:36;10.80;99.90
19200;DHT22;9732;52.498;5.408;2023-11-21T07:30:04;10.80;99.90
19200;DHT22;9732;52.498;5.408;2023-11-21T07:32:35;10.70;99.90
19200;DHT22;9732;52.498;5.408;2023-11-21T07:35:03;10.80;99.90
19200;DHT22;9732;52.498;5.408;2023-11-21T07:37:31;10.70;99.90
19200;DHT22;9732;52.498;5.408;2023-11-21T07:40:00;10.80;99.90
19200;DHT22;9732;52.498;5.408;2023-11-21T07:42:28;10.80;99.90
19200;DHT22;9732;52.498;5.408;2023-11-21T07:44:55;10.80;99.90
19200;DHT22;9732;52.498;5.408;2023-11-21T07:47:22;10.80;99.90
19200;DHT22;9732;52.498;5.408;2023-11-21T07:49:57;10.80;99.90
19200;DHT22;9732;52.498;5.408;2023-11-21T07:52:25;10.80;99.90
19200;DHT22;9732;52.498;5.408;2023-11-21T07:54:52;10.80;99.90
19200;DHT22;9732;52.498;5.408;2023-11-21T07:57:19;10.90;99.90
19200;DHT22;9732;52.498;5.408;2023-11-21T07:59:46;10.90;99.90
19200;DHT22;9732;52.498;5.408;2023-11-21T08:02:13;11.00;99.90
19200;DHT22;9732;52.498;5.408;2023-11-21T08:04:42;10.90;99.90
19200;DHT22;9732;52.498;5.408;2023-11-21T08:07:12;11.10;99.90
19200;DHT22;9732;52.498;5.408;2023-11-21T08:09:40;11.00;99.90
19200;DHT22;9732;52.498;5.408;2023-11-21T08:12:08;11.00;99.90
19200;DHT22;9732;52.498;5.408;2023-11-21T08:14:36;11.00;99.90
19200;DHT22;9732;52.498;5.408;2023-11-21T08:17:04;11.00;99.90
19200;DHT22;9732;52.498;5.408;2023-11-21T08:19:31;11.00;99.90
19200;DHT22;9732;52.498;5.408;2023-11-21T08:21:58;11.00;99.90
19200;DHT22;9732;52.498;5.408;2023-11-21T08:24:26;11.00;99.90
19200;DHT22;9732;52.498;5.408;2023-11-21T08:26:53;10.90;99.90
19200;DHT22;9732;52.498;5.408;2023-11-21T08:29:20;10.90;99.90
19200;DHT22;9732;52.498;5.408;2023-11-21T08:31:49;10.90;99.90
19200;DHT22;9732;52.498;5.408;2023-11-21T08:34:16;10.90;99.90
19200;DHT22;9732;52.498;5.408;2023-11-21T08:36:44;10.90;99.90
19200;DHT22;9732;52.498;5.408;2023-11-21T08:39:11;10.90;99.90
19200;DHT22;9732;52.498;5.408;2023-11-21T08:41:40;10.90;99.90
19200;DHT22;9732;52.498;5.408;2023-11-21T08:44:06;10.90;99.90
19200;DHT22;9732;52.498;5.408;2023-11-21T08:46:33;10.90;99.90
19200;DHT22;9732;52.498;5.408;2023-11-21T08:49:03;10.80;99.90
19200;DHT22;9732;52.498;5.408;2023-11-21T08:51:31;10.90;99.90
19200;DHT22;9732;52.498;5.408;2023-11-21T08:53:59;10.80;99.90
19200;DHT22;9732;52.498;5.408;2023-11-21T08:56:30;10.80;99.90
19200;DHT22;9732;52.498;5.408;2023-11-21T08:58:58;10.80;99.90
19200;DHT22;9732;52.498;5.408;2023-11-21T09:01:29;10.80;99.90
19200;DHT22;9732;52.498;5.408;2023-11-21T09:03:57;10.80;99.90
19200;DHT22;9732;52.498;5.408;2023-11-21T09:06:24;10.80;99.90
19200;DHT22;9732;52.498;5.408;2023-11-21T09:08:51;10.80;99.90
19200;DHT22;9732;52.498;5.408;2023-11-21T09:11:18;10.80;99.90
19200;DHT22;9732;52.498;5.408;2023-11-21T09:13:45;10.80;99.90
19200;DHT22;9732;52.498;5.408;2023-11-21T09:16:14;10.70;99.90
19200;DHT22;9732;52.498;5.408;2023-11-21T09:18:43;10.70;99.90
19200;DHT22;9732;52.498;5.408;2023-11-21T09:21:12;10.70;99.90
19200;DHT22;9732;52.498;5.408;2023-11-21T09:23:39;10.80;99.90
19200;DHT22;9732;52.498;5.408;2023-11-21T09:26:06;10.80;99.90
19200;DHT22;9732;52.498;5.408;2023-11-21T09:28:34;10.80;99.90
19200;DHT22;9732;52.498;5.408;2023-11-21T09:31:03;10.70;99.90
19200;DHT22;9732;52.498;5.408;2023-11-21T09:33:32;10.80;99.90
19200;DHT22;9732;52.498;5.408;2023-11-21T09:36:02;10.90;99.90
19200;DHT22;9732;52.498;5.408;2023-11-21T09:38:30;10.90;99.90
19200;DHT22;9732;52.498;5.408;2023-11-21T09:40:58;10.80;99.90
19200;DHT22;9732;52.498;5.408;2023-11-21T09:43:27;10.80;99.90
19200;DHT22;9732;52.498;5.408;2023-11-21T09:45:59;10.80;99.90
19200;DHT22;9732;52.498;5.408;2023-11-21T09:48:29;10.80;99.90
19200;DHT22;9732;52.498;5.408;2023-11-21T09:51:00;10.80;99.90
19200;DHT22;9732;52.498;5.408;2023-11-21T09:53:31;10.90;99.90
19200;DHT22;9732;52.498;5.408;2023-11-21T09:56:00;10.80;99.90
19200;DHT22;9732;52.498;5.408;2023-11-21T09:58:28;10.90;99.90
19200;DHT22;9732;52.498;5.408;2023-11-21T10:00:58;10.80;99.90
19200;DHT22;9732;52.498;5.408;2023-11-21T10:03:26;10.90;99.90
19200;DHT22;9732;52.498;5.408;2023-11-21T10:05:56;10.80;99.90
19200;DHT22;9732;52.498;5.408;2023-11-21T10:08:27;10.90;99.90
19200;DHT22;9732;52.498;5.408;2023-11-21T10:10:54;10.80;99.90
19200;DHT22;9732;52.498;5.408;2023-11-21T10:13:22;10.90;99.90
19200;DHT22;9732;52.498;5.408;2023-11-21T10:15:51;10.90;99.90
19200;DHT22;9732;52.498;5.408;2023-11-21T10:18:18;10.90;99.90
19200;DHT22;9732;52.498;5.408;2023-11-21T10:20:46;10.90;99.90
19200;DHT22;9732;52.498;5.408;2023-11-21T10:23:18;11.00;99.90
19200;DHT22;9732;52.498;5.408;2023-11-21T10:25:48;11.00;99.90
19200;DHT22;9732;52.498;5.408;2023-11-21T10:28:16;11.00;99.90
19200;DHT22;9732;52.498;5.408;2023-11-21T10:30:44;11.10;99.90
19200;DHT22;9732;52.498;5.408;2023-11-21T10:33:12;11.10;99.90
19200;DHT22;9732;52.498;5.408;2023-11-21T10:35:43;11.20;99.90
19200;DHT22;9732;52.498;5.408;2023-11-21T10:38:13;11.20;99.90
19200;DHT22;9732;52.498;5.408;2023-11-21T10:40:42;11.20;99.90
19200;DHT22;9732;52.498;5.408;2023-11-21T10:43:13;11.20;99.90
19200;DHT22;9732;52.498;5.408;2023-11-21T10:45:41;11.40;99.90
19200;DHT22;9732;52.498;5.408;2023-11-21T10:48:10;11.30;99.90
19200;DHT22;9732;52.498;5.408;2023-11-21T10:50:38;11.30;99.90
19200;DHT22;9732;52.498;5.408;2023-11-21T10:53:08;11.30;99.90
19200;DHT22;9732;52.498;5.408;2023-11-21T10:55:35;11.30;99.90
19200;DHT22;9732;52.498;5.408;2023-11-21T10:58:03;11.30;99.90
19200;DHT22;9732;52.498;5.408;2023-11-21T11:00:33;11.30;99.90
19200;DHT22;9732;52.498;5.408;2023-11-21T11:03:00;11.30;99.90
19200;DHT22;9732;52.498;5.408;2023-11-21T11:05:29;11.30;99.90
19200;DHT22;9732;52.498;5.408;2023-11-21T11:08:00;11.30;99.90
19200;DHT22;9732;52.498;5.408;2023-11-21T11:10:30;11.20;99.90
19200;DHT22;9732;52.498;5.408;2023-11-21T11:12:58;11.20;99.90
19200;DHT22;9732;52.498;5.408;2023-11-21T11:15:27;11.10;99.90
19200;DHT22;9732;52.498;5.408;2023-11-21T11:17:56;11.10;99.90
19200;DHT22;9732;52.498;5.408;2023-11-21T11:20:25;11.00;99.90
19200;DHT22;9732;52.498;5.408;2023-11-21T11:23:08;10.90;99.90
19200;DHT22;9732;52.498;5.408;2023-11-21T11:25:52;11.00;99.90
19200;DHT22;9732;52.498;5.408;2023-11-21T11:28:29;10.90;99.90
19200;DHT22;9732;52.498;5.408;2023-11-21T11:31:04;10.90;99.90
19200;DHT22;9732;52.498;5.408;2023-11-21T11:33:39;10.90;99.90
19200;DHT22;9732;52.498;5.408;2023-11-21T11:36:13;11.00;99.90
19200;DHT22;9732;52.498;5.408;2023-11-21T11:38:46;10.80;99.90
19200;DHT22;9732;52.498;5.408;2023-11-21T11:41:24;10.80;99.90
19200;DHT22;9732;52.498;5.408;2023-11-21T11:43:52;10.80;99.90
19200;DHT22;9732;52.498;5.408;2023-11-21T11:46:20;10.80;99.90
19200;DHT22;9732;52.498;5.408;2023-11-21T11:49:03;10.80;99.90
19200;DHT22;9732;52.498;5.408;2023-11-21T11:51:31;10.80;99.90
19200;DHT22;9732;52.498;5.408;2023-11-21T11:54:01;10.80;99.90
19200;DHT22;9732;52.498;5.408;2023-11-21T11:56:29;10.80;99.90
19200;DHT22;9732;52.498;5.408;2023-11-21T11:59:01;10.90;99.90
19200;DHT22;9732;52.498;5.408;2023-11-21T12:01:31;10.90;99.90
19200;DHT22;9732;52.498;5.408;2023-11-21T12:04:25;10.80;99.90
19200;DHT22;9732;52.498;5.408;2023-11-21T12:07:03;10.80;99.90
19200;DHT22;9732;52.498;5.408;2023-11-21T12:09:31;10.90;99.90
19200;DHT22;9732;52.498;5.408;2023-11-21T12:11:58;11.00;99.90
19200;DHT22;9732;52.498;5.408;2023-11-21T12:14:25;10.80;99.90
19200;DHT22;9732;52.498;5.408;2023-11-21T12:16:54;10.80;99.90
19200;DHT22;9732;52.498;5.408;2023-11-21T12:19:21;10.80;99.90
19200;DHT22;9732;52.498;5.408;2023-11-21T12:21:50;10.80;99.90
19200;DHT22;9732;52.498;5.408;2023-11-21T12:24:17;10.80;99.90
19200;DHT22;9732;52.498;5.408;2023-11-21T12:26:44;10.90;99.90
19200;DHT22;9732;52.498;5.408;2023-11-21T12:29:11;10.90;99.90
19200;DHT22;9732;52.498;5.408;2023-11-21T12:31:38;10.90;99.90
19200;DHT22;9732;52.498;5.408;2023-11-21T12:34:05;11.00;99.90
19200;DHT22;9732;52.498;5.408;2023-11-21T12:36:32;11.00;99.90
19200;DHT22;9732;52.498;5.408;2023-11-21T12:39:01;11.00;99.90
19200;DHT22;9732;52.498;5.408;2023-11-21T12:41:29;11.00;99.90
19200;DHT22;9732;52.498;5.408;2023-11-21T12:43:56;10.90;99.90
19200;DHT22;9732;52.498;5.408;2023-11-21T12:46:23;10.90;99.90
19200;DHT22;9732;52.498;5.408;2023-11-21T12:48:54;11.00;99.90
19200;DHT22;9732;52.498;5.408;2023-11-21T12:51:22;10.70;99.90
19200;DHT22;9732;52.498;5.408;2023-11-21T12:53:49;10.80;99.90
19200;DHT22;9732;52.498;5.408;2023-11-21T12:56:17;10.70;99.90
19200;DHT22;9732;52.498;5.408;2023-11-21T12:58:45;10.60;99.90
19200;DHT22;9732;52.498;5.408;2023-11-21T13:01:13;10.60;99.90
19200;DHT22;9732;52.498;5.408;2023-11-21T13:03:46;10.50;99.90
19200;DHT22;9732;52.498;5.408;2023-11-21T13:06:14;10.50;99.90
19200;DHT22;9732;52.498;5.408;2023-11-21T13:08:41;10.50;99.90
19200;DHT22;9732;52.498;5.408;2023-11-21T13:11:11;10.40;99.90
19200;DHT22;9732;52.498;5.408;2023-11-21T13:13:43;10.40;99.90
19200;DHT22;9732;52.498;5.408;2023-11-21T13:16:11;10.50;99.90
19200;DHT22;9732;52.498;5.408;2023-11-21T13:18:39;10.40;99.90
19200;DHT22;9732;52.498;5.408;2023-11-21T13:21:08;10.40;99.90
19200;DHT22;9732;52.498;5.408;2023-11-21T13:23:41;10.40;99.90
19200;DHT22;9732;52.498;5.408;2023-11-21T13:26:09;10.30;99.90
19200;DHT22;9732;52.498;5.408;2023-11-21T13:28:38;10.40;99.90
19200;DHT22;9732;52.498;5.408;2023-11-21T13:31:08;10.20;99.90
19200;DHT22;9732;52.498;5.408;2023-11-21T13:33:47;10.20;99.90
19200;DHT22;9732;52.498;5.408;2023-11-21T13:36:22;10.20;99.90
19200;DHT22;9732;52.498;5.408;2023-11-21T13:38:50;10.20;99.90
19200;DHT22;9732;52.498;5.408;2023-11-21T13:41:18;10.20;99.90
19200;DHT22;9732;52.498;5.408;2023-11-21T13:43:45;10.20;99.90
19200;DHT22;9732;52.498;5.408;2023-11-21T13:46:21;10.20;99.90
19200;DHT22;9732;52.498;5.408;2023-11-21T13:48:49;10.30;99.90
19200;DHT22;9732;52.498;5.408;2023-11-21T13:51:21;10.20;99.90
19200;DHT22;9732;52.498;5.408;2023-11-21T13:53:56;10.20;99.90
19200;DHT22;9732;52.498;5.408;2023-11-21T13:56:25;10.20;99.90
19200;DHT22;9732;52.498;5.408;2023-11-21T13:58:57;10.20;99.90
19200;DHT22;9732;52.498;5.408;2023-11-21T14:01:31;10.10;99.90
19200;DHT22;9732;52.498;5.408;2023-11-21T14:04:20;10.20;99.90
19200;DHT22;9732;52.498;5.408;2023-11-21T14:07:05;10.10;99.90
19200;DHT22;9732;52.498;5.408;2023-11-21T14:09:50;10.20;99.90
19200;DHT22;9732;52.498;5.408;2023-11-21T14:12:18;10.20;99.90
19200;DHT22;9732;52.498;5.408;2023-11-21T14:14:47;10.20;99.90
19200;DHT22;9732;52.498;5.408;2023-11-21T14:17:16;10.20;99.90
19200;DHT22;9732;52.498;5.408;2023-11-21T14:19:44;10.20;99.90
19200;DHT22;9732;52.498;5.408;2023-11-21T14:22:11;10.20;99.90
19200;DHT22;9732;52.498;5.408;2023-11-21T14:24:39;10.10;99.90
19200;DHT22;9732;52.498;5.408;2023-11-21T14:27:11;10.20;99.90
19200;DHT22;9732;52.498;5.408;2023-11-21T14:29:39;10.20;99.90
19200;DHT22;9732;52.498;5.408;2023-11-21T14:32:09;10.20;99.90
19200;DHT22;9732;52.498;5.408;2023-11-21T14:34:38;10.20;99.90
19200;DHT22;9732;52.498;5.408;2023-11-21T14:37:06;10.40;99.90
19200;DHT22;9732;52.498;5.408;2023-11-21T14:39:33;10.20;99.90
19200;DHT22;9732;52.498;5.408;2023-11-21T14:42:06;10.30;99.90
19200;DHT22;9732;52.498;5.408;2023-11-21T14:44:34;10.20;99.90
19200;DHT22;9732;52.498;5.408;2023-11-21T14:47:05;10.20;99.90
19200;DHT22;9732;52.498;5.408;2023-11-21T14:49:42;10.20;99.90
19200;DHT22;9732;52.498;5.408;2023-11-21T14:52:18;10.10;99.90
19200;DHT22;9732;52.498;5.408;2023-11-21T14:55:00;10.00;99.90
19200;DHT22;9732;52.498;5.408;2023-11-21T14:57:41;9.90;99.90
19200;DHT22;9732;52.498;5.408;2023-11-21T15:00:15;9.80;99.90
19200;DHT22;9732;52.498;5.408;2023-11-21T15:03:01;9.80;99.90
19200;DHT22;9732;52.498;5.408;2023-11-21T15:05:29;9.80;99.90
19200;DHT22;9732;52.498;5.408;2023-11-21T15:07:59;9.80;99.90
19200;DHT22;9732;52.498;5.408;2023-11-21T15:10:39;9.80;99.90
19200;DHT22;9732;52.498;5.408;2023-11-21T15:13:12;9.70;99.90
19200;DHT22;9732;52.498;5.408;2023-11-21T15:15:40;9.70;99.90
19200;DHT22;9732;52.498;5.408;2023-11-21T15:18:06;9.70;99.90
19200;DHT22;9732;52.498;5.408;2023-11-21T15:20:34;9.70;99.90
19200;DHT22;9732;52.498;5.408;2023-11-21T15:23:02;9.70;99.90
19200;DHT22;9732;52.498;5.408;2023-11-21T15:25:31;9.70;99.90
19200;DHT22;9732;52.498;5.408;2023-11-21T15:28:00;9.60;99.90
19200;DHT22;9732;52.498;5.408;2023-11-21T15:30:27;9.60;99.90
19200;DHT22;9732;52.498;5.408;2023-11-21T15:32:57;9.60;99.90
19200;DHT22;9732;52.498;5.408;2023-11-21T15:35:24;9.60;99.90
19200;DHT22;9732;52.498;5.408;2023-11-21T15:37:55;9.50;99.90
19200;DHT22;9732;52.498;5.408;2023-11-21T15:40:24;9.40;99.90
19200;DHT22;9732;52.498;5.408;2023-11-21T15:42:52;9.30;99.90
19200;DHT22;9732;52.498;5.408;2023-11-21T15:45:20;9.40;99.90
19200;DHT22;9732;52.498;5.408;2023-11-21T15:47:50;9.30;99.90
19200;DHT22;9732;52.498;5.408;2023-11-21T15:50:17;9.40;99.90
19200;DHT22;9732;52.498;5.408;2023-11-21T15:52:44;9.30;99.90
19200;DHT22;9732;52.498;5.408;2023-11-21T15:55:14;9.30;99.90
19200;DHT22;9732;52.498;5.408;2023-11-21T15:57:43;9.20;99.90